Time;durP1;ratioP1;P1;durP2;ratioP2;P2;SDS_P1;SDS_P2;PMS_P1;PMS_P2;Temp;Humidity;BMP_temperature;BMP_pressure;BME280_temperature;BME280_humidity;BME280_pressure;Samples;Min_cycle;Max_cycle;Signal;HPM_P1;HPM_P2
2022/02/18 05:00:17;;;;;;;11.73;3.23;;;9.00;99.90;;;;;;6031236;23;20382;31
2022/02/18 05:02:44;;;;;;;13.13;2.97;;;9.00;99.90;;;;;;4918688;29;20814;-66
2022/02/18 05:05:11;;;;;;;9.30;2.63;;;9.00;99.90;;;;;;4922255;29;20469;-67
2022/02/18 05:07:38;;;;;;;14.20;2.93;;;9.00;99.90;;;;;;4922299;29;20481;-66
2022/02/18 05:10:06;;;;;;;9.93;2.97;;;9.00;99.90;;;;;;4920434;29;20465;-67
2022/02/18 05:12:32;;;;;;;16.17;4.00;;;8.90;99.90;;;;;;4920111;29;20481;-67
2022/02/18 05:14:59;;;;;;;10.43;3.30;;;9.00;99.90;;;;;;4920321;29;20464;-66
2022/02/18 05:17:27;;;;;;;14.00;3.23;;;9.00;99.90;;;;;;4920274;29;20513;-67
2022/02/18 05:19:54;;;;;;;15.53;3.70;;;8.90;99.90;;;;;;4920536;29;20536;-67
2022/02/18 05:22:21;;;;;;;10.70;2.50;;;8.90;99.90;;;;;;4919916;29;20980;-67
2022/02/18 05:24:48;;;;;;;11.27;2.97;;;8.90;99.90;;;;;;4920862;29;20465;-68
2022/02/18 05:27:15;;;;;;;10.10;2.80;;;9.00;99.90;;;;;;4919368;29;20481;-67
2022/02/18 05:29:41;;;;;;;11.60;2.67;;;8.90;99.90;;;;;;4919615;29;20461;-67
2022/02/18 05:32:09;;;;;;;16.00;3.33;;;8.90;99.90;;;;;;4919756;29;20838;-67
2022/02/18 05:34:37;;;;;;;15.93;3.30;;;8.90;99.90;;;;;;4919851;29;20489;-72
2022/02/18 05:37:04;;;;;;;11.00;3.40;;;8.90;99.90;;;;;;4919918;29;20458;-67
2022/02/18 05:39:31;;;;;;;17.30;3.67;;;8.90;99.90;;;;;;4920533;29;20853;-67
2022/02/18 05:41:58;;;;;;;17.30;5.67;;;8.90;99.90;;;;;;4919540;29;20486;-68
2022/02/18 05:44:30;;;;;;;13.43;3.43;;;9.00;99.90;;;;;;4919922;29;20457;-67
2022/02/18 05:46:57;;;;;;;13.50;3.77;;;8.90;99.90;;;;;;4919820;29;20521;-67
2022/02/18 05:49:24;;;;;;;14.53;3.40;;;9.00;99.90;;;;;;4919567;29;20461;-66
2022/02/18 05:51:52;;;;;;;14.63;3.67;;;9.00;99.90;;;;;;4919475;29;20487;-68
2022/02/18 05:54:19;;;;;;;12.27;4.30;;;9.00;99.90;;;;;;4919473;29;20458;-68
2022/02/18 05:56:47;;;;;;;15.33;3.17;;;9.10;99.90;;;;;;4920969;29;21030;-70
2022/02/18 05:59:13;;;;;;;10.53;3.43;;;9.10;99.90;;;;;;4919784;29;20470;-67
2022/02/18 06:01:44;;;;;;;13.63;3.73;;;9.10;99.90;;;;;;4919617;29;21011;-68
2022/02/18 06:04:11;;;;;;;17.40;3.50;;;9.20;99.90;;;;;;4922278;29;20529;-67
2022/02/18 06:06:37;;;;;;;9.30;2.70;;;9.20;99.90;;;;;;4921027;29;20813;-67
2022/02/18 06:09:06;;;;;;;15.33;3.20;;;9.20;99.90;;;;;;4920829;29;20822;-68
2022/02/18 06:11:33;;;;;;;17.40;3.43;;;9.20;99.90;;;;;;4919038;29;20537;-67
2022/02/18 06:14:00;;;;;;;10.13;3.23;;;9.30;99.90;;;;;;4918940;29;20460;-67
2022/02/18 06:16:28;;;;;;;11.17;3.20;;;9.40;99.90;;;;;;4919150;29;20461;-68
2022/02/18 06:18:55;;;;;;;12.73;4.10;;;9.30;99.90;;;;;;4919991;29;20453;-66
2022/02/18 06:21:22;;;;;;;13.27;5.10;;;9.40;99.90;;;;;;4919445;29;20481;-68
2022/02/18 06:23:49;;;;;;;13.77;3.20;;;9.40;99.90;;;;;;4919311;29;20769;-68
2022/02/18 06:26:17;;;;;;;14.03;3.80;;;9.40;99.90;;;;;;4918870;29;20903;-68
2022/02/18 06:28:44;;;;;;;13.77;3.97;;;9.50;99.90;;;;;;4919515;29;20489;-68
2022/02/18 06:31:10;;;;;;;12.33;3.23;;;9.50;99.90;;;;;;4919149;29;20485;-68
2022/02/18 06:33:37;;;;;;;14.00;3.13;;;9.50;99.90;;;;;;4920017;29;20462;-67
2022/02/18 06:36:04;;;;;;;15.50;4.40;;;9.50;99.90;;;;;;4919252;29;20853;-67
2022/02/18 06:38:32;;;;;;;13.03;3.50;;;9.60;99.90;;;;;;4918726;29;20458;-68
2022/02/18 06:40:58;;;;;;;18.50;3.83;;;9.50;99.90;;;;;;4919451;29;21049;-68
2022/02/18 06:43:26;;;;;;;9.57;2.93;;;9.60;99.90;;;;;;4919484;29;20461;-67
2022/02/18 06:45:53;;;;;;;15.03;3.33;;;9.60;99.90;;;;;;4919030;29;20461;-68
2022/02/18 06:48:21;;;;;;;13.10;3.70;;;9.60;99.90;;;;;;4918369;29;20572;-69
2022/02/18 06:50:48;;;;;;;18.10;3.87;;;9.70;99.90;;;;;;4918838;29;20486;-68
2022/02/18 06:53:15;;;;;;;16.20;3.70;;;9.70;99.90;;;;;;4918547;29;20457;-68
2022/02/18 06:55:42;;;;;;;22.70;5.00;;;9.80;99.90;;;;;;4918807;29;20465;-68
2022/02/18 06:58:09;;;;;;;15.50;3.30;;;9.80;99.90;;;;;;4918210;29;20453;-69
2022/02/18 07:00:37;;;;;;;14.90;3.83;;;9.80;99.90;;;;;;4917712;29;20489;-68
2022/02/18 07:03:07;;;;;;;17.13;3.70;;;9.80;99.90;;;;;;4917980;29;20913;-68
2022/02/18 07:05:33;;;;;;;16.27;4.57;;;9.90;99.90;;;;;;4918093;29;20941;-69
2022/02/18 07:08:01;;;;;;;13.47;3.40;;;9.80;99.90;;;;;;4918107;29;20477;-68
2022/02/18 07:10:28;;;;;;;13.17;3.27;;;9.80;99.90;;;;;;4917980;29;20538;-68
2022/02/18 07:12:56;;;;;;;13.13;3.40;;;9.90;99.90;;;;;;4918319;29;20814;-68
2022/02/18 07:15:24;;;;;;;11.73;3.30;;;9.90;99.90;;;;;;4917906;29;20980;-67
2022/02/18 07:17:52;;;;;;;11.37;2.93;;;9.90;99.90;;;;;;4917867;29;20457;-68
2022/02/18 07:20:19;;;;;;;18.03;3.93;;;9.90;99.90;;;;;;4917578;29;20468;-68
2022/02/18 07:22:46;;;;;;;12.13;3.60;;;10.00;99.90;;;;;;4917737;29;20460;-68
2022/02/18 07:25:15;;;;;;;19.40;3.47;;;10.00;99.90;;;;;;4918132;29;20465;-68
2022/02/18 07:27:42;;;;;;;12.73;3.67;;;10.00;99.90;;;;;;4917420;29;20516;-68
2022/02/18 07:30:11;;;;;;;11.30;3.30;;;10.10;99.90;;;;;;4918025;29;20458;-68
2022/02/18 07:32:38;;;;;;;18.30;3.13;;;10.10;99.90;;;;;;4918002;29;20493;-68
2022/02/18 07:35:07;;;;;;;10.13;3.30;;;10.10;99.90;;;;;;4918652;29;20472;-68
2022/02/18 07:37:34;;;;;;;12.13;2.60;;;10.20;99.90;;;;;;4923816;29;20953;-68
2022/02/18 07:40:01;;;;;;;17.97;3.80;;;10.20;99.90;;;;;;4917641;29;20976;-69
2022/02/18 07:42:28;;;;;;;12.17;3.67;;;10.20;99.90;;;;;;4917482;29;20500;-69
2022/02/18 07:44:54;;;;;;;14.60;3.20;;;10.20;99.90;;;;;;4918508;29;20457;-69
2022/02/18 07:47:22;;;;;;;9.80;3.10;;;10.20;99.90;;;;;;4917774;29;20458;-68
2022/02/18 07:49:50;;;;;;;11.00;2.90;;;10.20;99.90;;;;;;4919716;29;20464;-68
2022/02/18 07:52:20;;;;;;;14.53;3.90;;;10.20;99.90;;;;;;4921595;29;20520;-68
2022/02/18 07:54:47;;;;;;;11.53;3.80;;;10.20;99.90;;;;;;4922275;29;20508;-68
2022/02/18 07:57:14;;;;;;;13.07;3.13;;;10.30;99.90;;;;;;4921578;29;20470;-69
2022/02/18 07:59:40;;;;;;;17.90;4.33;;;10.20;99.90;;;;;;4921339;29;20462;-68
2022/02/18 08:02:08;;;;;;;11.47;3.10;;;10.30;99.90;;;;;;4920792;29;20489;-68
2022/02/18 08:04:34;;;;;;;8.67;2.70;;;10.30;99.90;;;;;;4921978;29;20472;-69
2022/02/18 08:07:01;;;;;;;11.07;2.73;;;10.40;99.90;;;;;;4920983;29;20457;-68
2022/02/18 08:09:29;;;;;;;8.90;2.77;;;10.40;99.90;;;;;;4921355;29;20484;-68
2022/02/18 08:11:56;;;;;;;15.13;3.60;;;10.50;99.90;;;;;;4920964;29;20856;-68
2022/02/18 08:14:22;;;;;;;11.00;3.40;;;10.60;99.90;;;;;;4921252;29;20457;-68
2022/02/18 08:16:49;;;;;;;7.83;2.67;;;10.60;99.90;;;;;;4921508;29;20465;-68
2022/02/18 08:19:20;;;;;;;10.10;2.60;;;10.70;99.90;;;;;;4920982;29;20830;-69
2022/02/18 08:21:47;;;;;;;17.60;3.23;;;10.90;99.90;;;;;;4920935;29;21004;-67
2022/02/18 08:24:17;;;;;;;10.43;2.90;;;11.00;99.90;;;;;;4925926;29;20465;-68
2022/02/18 08:26:46;;;;;;;8.03;2.63;;;11.10;99.90;;;;;;4926891;29;20445;-68
2022/02/18 08:29:13;;;;;;;9.30;2.90;;;11.10;99.90;;;;;;4927087;29;20492;-68
2022/02/18 08:31:39;;;;;;;9.77;2.30;;;11.20;99.90;;;;;;4927241;29;20481;-68
2022/02/18 08:34:06;;;;;;;8.87;2.70;;;11.20;99.90;;;;;;4922753;29;20489;-69
2022/02/18 08:36:35;;;;;;;7.73;2.40;;;11.20;99.90;;;;;;4920378;29;20461;-68
2022/02/18 08:39:01;;;;;;;6.07;2.30;;;11.30;99.90;;;;;;4919914;29;20493;-68
2022/02/18 08:41:28;;;;;;;9.27;4.03;;;11.40;99.90;;;;;;4920283;29;20481;-68
2022/02/18 08:43:58;;;;;;;6.30;2.80;;;11.50;99.90;;;;;;4920273;29;20469;-68
2022/02/18 08:46:24;;;;;;;8.10;2.33;;;11.60;99.90;;;;;;4920260;29;20461;-68
2022/02/18 08:48:52;;;;;;;8.40;1.77;;;11.70;99.90;;;;;;4920289;29;20489;-68
2022/02/18 08:51:18;;;;;;;8.60;1.93;;;11.60;99.90;;;;;;4920139;29;20533;-68
2022/02/18 08:53:45;;;;;;;13.67;3.67;;;11.70;99.90;;;;;;4920193;29;20461;-68
2022/02/18 08:56:12;;;;;;;3.60;1.90;;;11.80;99.90;;;;;;4920133;29;20465;-68
2022/02/18 08:58:39;;;;;;;3.83;1.80;;;11.90;99.90;;;;;;4920357;29;20493;-67
2022/02/18 09:01:07;;;;;;;4.67;1.60;;;12.00;99.90;;;;;;4919072;29;20482;-67
2022/02/18 09:03:34;;;;;;;4.00;1.50;;;12.10;99.90;;;;;;4919901;29;20466;-67
2022/02/18 09:06:01;;;;;;;5.33;1.80;;;12.10;99.90;;;;;;4919699;29;20964;-67
2022/02/18 09:08:28;;;;;;;5.77;1.70;;;12.20;99.90;;;;;;4925242;29;20532;-68
2022/02/18 09:10:55;;;;;;;6.87;1.87;;;12.40;99.90;;;;;;4920900;29;21017;-68
2022/02/18 09:13:25;;;;;;;4.40;1.47;;;12.40;99.90;;;;;;4919827;29;20554;-68
2022/02/18 09:15:52;;;;;;;3.63;1.70;;;12.60;99.90;;;;;;4919360;29;20945;-68
2022/02/18 09:18:21;;;;;;;3.87;1.57;;;12.70;99.90;;;;;;4919347;29;20548;-67
2022/02/18 09:20:48;;;;;;;2.57;1.37;;;12.80;99.90;;;;;;4919191;29;20493;-67
2022/02/18 09:23:15;;;;;;;2.63;1.60;;;12.80;99.90;;;;;;4919334;29;20453;-67
2022/02/18 09:25:42;;;;;;;4.40;1.40;;;12.90;99.90;;;;;;4919295;29;20468;-67
2022/02/18 09:28:09;;;;;;;6.30;1.43;;;12.90;99.90;;;;;;4919159;29;20485;-67
2022/02/18 09:30:43;;;;;;;2.30;1.40;;;13.00;99.90;;;;;;4919127;29;20477;-68
2022/02/18 09:33:11;;;;;;;2.40;1.30;;;13.00;99.90;;;;;;4918981;29;20905;-67
2022/02/18 09:35:39;;;;;;;4.47;1.30;;;13.10;99.90;;;;;;4919217;29;20782;-68
2022/02/18 09:38:07;;;;;;;2.57;1.57;;;13.10;99.90;;;;;;4919161;29;20454;-66
2022/02/18 09:40:34;;;;;;;4.50;1.33;;;13.40;99.90;;;;;;4918984;29;20481;-67
2022/02/18 09:43:01;;;;;;;3.03;1.40;;;13.70;99.90;;;;;;4919027;29;20464;-66
2022/02/18 09:45:28;;;;;;;1.40;1.30;;;13.90;99.90;;;;;;4919245;29;20458;-66
2022/02/18 09:47:56;;;;;;;3.63;1.63;;;14.00;99.90;;;;;;4919006;29;20466;-66
2022/02/18 09:50:23;;;;;;;2.83;1.40;;;14.20;99.90;;;;;;4919372;29;20465;-66
2022/02/18 09:52:52;;;;;;;2.63;1.10;;;14.40;99.90;;;;;;4919158;29;20572;-66
2022/02/18 09:55:18;;;;;;;5.43;1.53;;;14.60;99.90;;;;;;4919690;29;20475;-66
2022/02/18 09:57:49;;;;;;;4.50;1.30;;;14.80;99.90;;;;;;4919084;29;20469;-66
2022/02/18 10:00:16;;;;;;;1.80;1.30;;;15.00;99.90;;;;;;4918602;29;20466;-66
2022/02/18 10:02:43;;;;;;;2.47;1.47;;;15.10;99.90;;;;;;4918949;29;20469;-66
2022/02/18 10:05:10;;;;;;;2.90;1.50;;;15.00;99.90;;;;;;4919016;29;20465;-66
2022/02/18 10:08:05;;;;;;;2.13;1.53;;;15.00;99.90;;;;;;4918618;29;20453;-66
2022/02/18 10:10:33;;;;;;;2.83;1.43;;;15.20;99.90;;;;;;4919269;29;20450;-66
2022/02/18 10:13:01;;;;;;;5.27;1.60;;;15.30;99.90;;;;;;4918490;29;20465;-66
2022/02/18 10:15:28;;;;;;;2.53;0.97;;;15.30;99.90;;;;;;4919536;29;20461;-66
2022/02/18 10:18:00;;;;;;;2.10;1.20;;;15.50;99.90;;;;;;4919217;29;20841;-66
2022/02/18 10:20:29;;;;;;;2.37;1.40;;;15.50;99.90;;;;;;4918757;29;20451;-67
2022/02/18 10:22:58;;;;;;;2.57;1.40;;;15.90;99.90;;;;;;4918543;29;20538;-67
2022/02/18 10:25:27;;;;;;;2.67;1.70;;;16.70;99.90;;;;;;4917926;29;20971;-67
2022/02/18 10:27:55;;;;;;;2.87;1.70;;;17.60;99.90;;;;;;4918334;29;20461;-67
2022/02/18 10:30:25;;;;;;;4.50;1.30;;;18.40;99.90;;;;;;4918296;29;20464;-67
2022/02/18 10:32:52;;;;;;;1.83;1.20;;;18.40;99.90;;;;;;4917977;29;20442;-66
2022/02/18 10:35:22;;;;;;;2.70;1.40;;;18.40;99.90;;;;;;4918456;29;20468;-66
2022/02/18 10:37:50;;;;;;;3.67;1.13;;;18.00;99.90;;;;;;4918371;29;20489;-67
2022/02/18 10:40:18;;;;;;;4.83;1.20;;;18.10;99.90;;;;;;4920278;29;20777;-67
2022/02/18 10:42:47;;;;;;;4.50;1.10;;;18.20;99.90;;;;;;4918241;29;20468;-67
2022/02/18 10:45:16;;;;;;;2.80;1.10;;;18.30;99.90;;;;;;4918123;29;20464;-67
2022/02/18 10:47:44;;;;;;;2.20;1.20;;;18.20;99.90;;;;;;4918061;29;20492;-66
2022/02/18 10:50:15;;;;;;;2.10;1.47;;;18.20;99.90;;;;;;4918387;29;20576;-66
2022/02/18 10:52:42;;;;;;;1.53;1.43;;;17.80;99.90;;;;;;4918909;29;20462;-68
2022/02/18 10:55:10;;;;;;;5.03;1.00;;;17.90;99.90;;;;;;4919033;29;20964;-66
2022/02/18 10:57:37;;;;;;;5.63;1.20;;;17.80;99.90;;;;;;4918977;29;20458;-66
2022/02/18 11:00:16;;;;;;;3.00;1.20;;;17.70;99.90;;;;;;4918629;29;20943;-66
2022/02/18 11:02:50;;;;;;;3.93;1.10;;;17.50;99.90;;;;;;4919667;29;20493;-66
2022/02/18 11:05:21;;;;;;;2.57;1.10;;;17.20;99.90;;;;;;4919888;29;20466;-66
2022/02/18 11:07:48;;;;;;;2.97;1.00;;;17.00;99.90;;;;;;4918123;29;20454;-67
2022/02/18 11:10:30;;;;;;;5.00;1.47;;;17.10;99.90;;;;;;4917686;29;20477;-68
2022/02/18 11:12:57;;;;;;;2.33;0.80;;;17.20;99.90;;;;;;4917973;29;20465;-66
2022/02/18 11:15:27;;;;;;;1.90;0.70;;;17.30;99.90;;;;;;4917881;29;20458;-67
2022/02/18 11:17:55;;;;;;;1.47;0.83;;;17.40;99.90;;;;;;4917675;29;20465;-67
2022/02/18 11:20:23;;;;;;;3.17;0.70;;;17.60;99.90;;;;;;4917848;29;20505;-67
2022/02/18 11:22:50;;;;;;;3.83;1.10;;;17.40;99.90;;;;;;4917736;29;20902;-66
2022/02/18 11:25:17;;;;;;;3.83;1.13;;;17.30;99.90;;;;;;4916947;29;20484;-67
2022/02/18 11:27:44;;;;;;;2.03;1.13;;;17.10;99.90;;;;;;4917621;29;20468;-66
2022/02/18 11:30:11;;;;;;;2.17;0.63;;;17.00;99.90;;;;;;4917448;29;20482;-66
2022/02/18 11:32:49;;;;;;;1.17;1.03;;;17.10;99.90;;;;;;4918164;29;20488;-67
2022/02/18 11:35:28;;;;;;;1.57;1.00;;;16.90;99.90;;;;;;4917368;29;20449;-66
2022/02/18 11:38:26;;;;;;;1.00;0.73;;;16.80;99.90;;;;;;4919713;29;20446;-66
2022/02/18 11:41:10;;;;;;;1.70;0.70;;;16.70;99.90;;;;;;4917232;29;20484;-66
2022/02/18 11:43:45;;;;;;;4.87;0.83;;;16.40;99.90;;;;;;4917278;29;20497;-67
2022/02/18 11:46:22;;;;;;;3.30;1.20;;;16.40;99.90;;;;;;4917036;29;20913;-66
2022/02/18 11:48:51;;;;;;;1.80;0.83;;;16.40;99.90;;;;;;4917330;29;20508;-66
2022/02/18 11:51:21;;;;;;;3.23;1.30;;;16.30;99.90;;;;;;4917550;29;20500;-66
2022/02/18 11:53:50;;;;;;;2.10;0.90;;;16.30;99.90;;;;;;4917617;29;20902;-67
2022/02/18 11:56:28;;;;;;;1.20;0.60;;;16.50;99.90;;;;;;4919193;29;20508;-66
2022/02/18 11:59:02;;;;;;;2.27;1.10;;;16.40;99.90;;;;;;4917825;29;20800;-67
2022/02/18 12:02:05;;;;;;;1.33;0.80;;;16.50;99.90;;;;;;4917178;29;20489;-67
2022/02/18 12:04:33;;;;;;;1.33;1.07;;;16.80;99.90;;;;;;4917434;29;20457;-66
2022/02/18 12:07:30;;;;;;;5.10;1.17;;;17.10;99.90;;;;;;4917248;29;20457;-67
2022/02/18 12:10:11;;;;;;;0.97;0.70;;;17.20;99.90;;;;;;4917347;29;20485;-67
2022/02/18 12:12:41;;;;;;;1.43;0.80;;;17.30;99.90;;;;;;4923524;29;20485;-67
2022/02/18 12:15:14;;;;;;;2.00;0.90;;;17.20;99.90;;;;;;4917352;29;20521;-67
2022/02/18 12:17:43;;;;;;;1.30;1.10;;;17.10;99.90;;;;;;4917129;29;20465;-67
2022/02/18 12:20:13;;;;;;;1.10;0.80;;;17.20;99.90;;;;;;4916854;29;20820;-67
2022/02/18 12:22:40;;;;;;;3.57;0.93;;;17.10;99.90;;;;;;4917094;29;20445;-67
2022/02/18 12:25:08;;;;;;;4.30;1.00;;;17.40;99.90;;;;;;4917316;29;20464;-67
2022/02/18 12:27:38;;;;;;;1.50;0.90;;;17.50;99.90;;;;;;4916862;29;20521;-67
2022/02/18 12:30:45;;;;;;;1.00;0.70;;;17.30;99.90;;;;;;4917306;29;21015;-66
2022/02/18 12:33:12;;;;;;;4.00;0.90;;;17.40;99.90;;;;;;4917615;29;20488;-67
2022/02/18 12:35:40;;;;;;;2.70;1.00;;;17.40;99.90;;;;;;4917758;29;20850;-66
2022/02/18 12:38:10;;;;;;;1.50;1.20;;;17.50;99.90;;;;;;4921500;29;20457;-66
2022/02/18 12:40:39;;;;;;;1.50;1.07;;;17.40;99.90;;;;;;4921300;29;20482;-66
2022/02/18 12:43:11;;;;;;;1.63;1.23;;;17.50;99.90;;;;;;4921048;29;20830;-66
2022/02/18 12:45:49;;;;;;;3.20;1.00;;;17.50;99.90;;;;;;4920792;29;20445;-67
2022/02/18 12:48:30;;;;;;;3.13;1.17;;;17.40;99.90;;;;;;4921492;29;20528;-67
2022/02/18 12:51:00;;;;;;;1.63;1.00;;;17.20;99.90;;;;;;4920192;29;20527;-67
2022/02/18 12:53:27;;;;;;;2.63;0.90;;;17.10;99.90;;;;;;4920537;29;20913;-68
2022/02/18 12:55:54;;;;;;;4.00;1.00;;;17.00;99.90;;;;;;4920103;29;20458;-66
2022/02/18 12:58:21;;;;;;;1.10;0.70;;;17.00;99.90;;;;;;4920567;29;20461;-67
2022/02/18 13:00:49;;;;;;;1.67;1.10;;;17.00;99.90;;;;;;4919822;29;20673;-67
2022/02/18 13:03:16;;;;;;;2.27;1.10;;;17.00;99.90;;;;;;4921321;29;20784;-67
2022/02/18 13:05:42;;;;;;;2.27;0.97;;;16.90;99.90;;;;;;4921727;29;20481;-67
2022/02/18 13:08:23;;;;;;;1.50;0.97;;;16.90;99.90;;;;;;4921835;29;20453;-67
2022/02/18 13:10:52;;;;;;;3.70;1.10;;;16.80;99.90;;;;;;4921061;29;20496;-67
2022/02/18 13:13:21;;;;;;;1.37;1.00;;;16.70;99.90;;;;;;4921997;29;20457;-68
2022/02/18 13:15:50;;;;;;;7.00;1.80;;;16.60;99.90;;;;;;4923503;29;20461;-67
2022/02/18 13:18:17;;;;;;;3.13;1.03;;;16.40;99.90;;;;;;4922694;29;20465;-68
2022/02/18 13:20:46;;;;;;;3.13;1.07;;;16.30;99.90;;;;;;4923386;29;20481;-68
2022/02/18 13:23:15;;;;;;;2.07;1.17;;;16.40;99.90;;;;;;4922446;29;20949;-67
2022/02/18 13:25:50;;;;;;;1.50;0.80;;;16.40;99.90;;;;;;4923654;29;21059;-70
2022/02/18 13:28:19;;;;;;;1.70;0.90;;;16.40;99.90;;;;;;4922734;29;20820;-68
2022/02/18 13:30:48;;;;;;;2.13;0.93;;;16.40;99.90;;;;;;4922434;29;20489;-68
2022/02/18 13:33:17;;;;;;;0.70;0.70;;;16.30;99.90;;;;;;4923187;29;20466;-68
2022/02/18 13:35:45;;;;;;;4.30;1.17;;;16.30;99.90;;;;;;4921745;29;20821;-67
2022/02/18 13:38:20;;;;;;;1.30;0.80;;;16.30;99.90;;;;;;4920868;29;20446;-67
2022/02/18 13:41:04;;;;;;;4.17;0.97;;;16.30;99.90;;;;;;4919762;29;20567;-67
2022/02/18 13:43:31;;;;;;;0.80;0.80;;;16.30;99.90;;;;;;4921024;29;20446;-67
2022/02/18 13:45:58;;;;;;;1.23;1.10;;;16.30;99.90;;;;;;4923343;29;20464;-68
2022/02/18 13:48:26;;;;;;;1.17;0.60;;;16.10;99.90;;;;;;4919543;29;20468;-68
2022/02/18 13:50:53;;;;;;;2.30;1.07;;;16.00;99.90;;;;;;4920206;29;20486;-68
2022/02/18 13:53:21;;;;;;;3.90;0.77;;;15.80;99.90;;;;;;4920936;29;20498;-67
2022/02/18 13:55:49;;;;;;;0.87;0.87;;;15.80;99.90;;;;;;4921112;29;20465;-67
2022/02/18 13:58:23;;;;;;;1.83;0.93;;;15.80;99.90;;;;;;4920887;29;20458;-67
2022/02/18 14:00:50;;;;;;;2.20;0.90;;;15.80;99.90;;;;;;4920600;29;20489;-67
2022/02/18 14:03:18;;;;;;;3.60;1.40;;;15.80;99.90;;;;;;4921390;29;20470;-68
2022/02/18 14:05:46;;;;;;;2.07;1.03;;;15.80;99.90;;;;;;4920416;29;20465;-68
2022/02/18 14:08:14;;;;;;;5.03;1.00;;;15.90;99.90;;;;;;4920707;29;20458;-67
2022/02/18 14:10:43;;;;;;;3.10;1.10;;;15.90;99.90;;;;;;4920977;29;20498;-67
2022/02/18 14:13:23;;;;;;;1.13;0.87;;;16.00;99.90;;;;;;4920760;29;20466;-67
2022/02/18 14:16:07;;;;;;;1.90;0.80;;;16.00;99.90;;;;;;4919551;29;20528;-67
2022/02/18 14:18:35;;;;;;;2.50;1.07;;;16.10;99.90;;;;;;4919423;29;20457;-67
2022/02/18 14:21:02;;;;;;;2.77;0.97;;;16.20;99.90;;;;;;4918962;29;20477;-67
2022/02/18 14:23:33;;;;;;;2.77;0.70;;;16.40;99.90;;;;;;4919529;29;20457;-68
2022/02/18 14:26:01;;;;;;;3.50;1.50;;;16.70;99.90;;;;;;4919528;29;20461;-68
2022/02/18 14:28:29;;;;;;;2.13;1.00;;;16.80;99.90;;;;;;4918998;29;20469;-67
2022/02/18 14:30:58;;;;;;;5.90;1.10;;;16.90;99.90;;;;;;4919552;29;20497;-67
2022/02/18 14:33:26;;;;;;;2.57;1.00;;;17.30;99.90;;;;;;4921346;29;20458;-67
2022/02/18 14:35:53;;;;;;;2.93;1.00;;;17.50;99.90;;;;;;4918475;29;20472;-69
2022/02/18 14:38:20;;;;;;;3.27;1.00;;;17.60;99.90;;;;;;4918413;29;20458;-67
2022/02/18 14:40:48;;;;;;;2.13;1.30;;;17.20;99.90;;;;;;4918485;29;20844;-66
2022/02/18 14:43:16;;;;;;;1.50;1.07;;;17.20;99.90;;;;;;4918938;29;20465;-67
2022/02/18 14:45:44;;;;;;;1.60;1.03;;;17.00;99.90;;;;;;4918801;29;20465;-68
2022/02/18 14:48:13;;;;;;;4.57;1.40;;;16.90;99.90;;;;;;4919047;29;20860;-68
2022/02/18 14:50:42;;;;;;;1.73;1.23;;;16.80;99.90;;;;;;4919650;29;20489;-67
2022/02/18 14:53:12;;;;;;;4.13;1.13;;;16.60;99.90;;;;;;4918819;29;20462;-67
2022/02/18 14:55:40;;;;;;;2.13;1.13;;;16.40;99.90;;;;;;4918829;29;20454;-67
2022/02/18 14:58:07;;;;;;;2.00;0.90;;;16.50;99.90;;;;;;4918441;29;20545;-67
2022/02/18 15:00:34;;;;;;;2.00;1.10;;;16.30;99.90;;;;;;4918105;29;20470;-67
2022/02/18 15:03:04;;;;;;;3.90;1.60;;;16.30;99.90;;;;;;4919079;29;20445;-68
2022/02/18 15:05:34;;;;;;;1.20;1.13;;;16.30;99.90;;;;;;4923979;29;20450;-67
2022/02/18 15:08:01;;;;;;;3.80;1.47;;;16.20;99.90;;;;;;4922789;29;20458;-67
2022/02/18 15:10:30;;;;;;;4.53;1.50;;;16.20;99.90;;;;;;4923080;29;20488;-68
2022/02/18 15:12:57;;;;;;;4.70;1.23;;;16.30;99.90;;;;;;4920340;29;20457;-68
2022/02/18 15:15:24;;;;;;;5.73;1.23;;;16.30;99.90;;;;;;4922038;29;20434;-68
2022/02/18 15:17:50;;;;;;;1.37;1.17;;;16.20;99.90;;;;;;4925314;29;20496;-69
2022/02/18 15:20:19;;;;;;;2.83;0.97;;;16.30;99.90;;;;;;4919528;29;20501;-68
2022/02/18 15:22:45;;;;;;;2.43;1.03;;;16.20;99.90;;;;;;4919296;29;20984;-68
2022/02/18 15:25:12;;;;;;;3.87;1.00;;;16.20;99.90;;;;;;4919126;29;20468;-68
2022/02/18 15:27:39;;;;;;;3.47;1.60;;;16.10;99.90;;;;;;4919161;29;20457;-68
2022/02/18 15:35:37;;;;;;;2.67;2.00;;;16.00;99.90;;;;;;4918642;29;20425;-68
2022/02/18 15:38:04;;;;;;;1.47;1.10;;;15.90;99.90;;;;;;4918647;29;20446;-69
2022/02/18 15:43:15;;;;;;;1.70;1.17;;;15.90;99.90;;;;;;4918907;29;20470;-68
2022/02/18 15:45:42;;;;;;;2.77;1.40;;;16.00;99.90;;;;;;4917854;29;20823;-67
2022/02/18 15:48:09;;;;;;;4.77;1.10;;;15.90;99.90;;;;;;4917978;29;20513;-68
2022/02/18 15:50:37;;;;;;;2.57;1.30;;;15.90;99.90;;;;;;4918083;29;20569;-68
2022/02/18 15:53:04;;;;;;;1.30;1.20;;;15.80;99.90;;;;;;4917397;29;20457;-68
2022/02/18 15:55:31;;;;;;;2.47;1.27;;;15.90;99.90;;;;;;4917596;29;20529;-67
2022/02/18 15:57:58;;;;;;;1.70;1.10;;;15.90;99.90;;;;;;4917676;29;20961;-67
2022/02/18 16:00:26;;;;;;;2.70;1.20;;;15.80;99.90;;;;;;4916858;29;20461;-67
2022/02/18 16:02:53;;;;;;;1.07;0.97;;;15.80;99.90;;;;;;4917265;29;20442;-69
2022/02/18 16:05:20;;;;;;;1.67;1.20;;;15.90;99.90;;;;;;4917169;29;20457;-68
2022/02/18 16:07:49;;;;;;;3.57;1.20;;;15.90;99.90;;;;;;4917009;29;20463;-68
2022/02/18 16:10:15;;;;;;;2.73;1.37;;;15.80;99.90;;;;;;4917865;29;20488;-67
2022/02/18 16:12:43;;;;;;;4.93;1.30;;;15.70;99.90;;;;;;4920808;29;20812;-68
2022/02/18 16:15:11;;;;;;;2.07;0.90;;;15.60;99.90;;;;;;4920913;29;20460;-66
2022/02/18 16:17:42;;;;;;;1.40;1.30;;;15.60;99.90;;;;;;4920769;29;20495;-69
2022/02/18 16:20:10;;;;;;;4.90;1.20;;;15.60;99.90;;;;;;4921146;29;20442;-69
2022/02/18 16:22:38;;;;;;;1.40;1.30;;;15.50;99.90;;;;;;4920599;29;20484;-67
2022/02/18 16:25:08;;;;;;;7.30;1.10;;;15.50;99.90;;;;;;4921224;29;20460;-70
2022/02/18 16:27:35;;;;;;;1.57;1.10;;;15.40;99.90;;;;;;4920990;29;20454;-67
2022/02/18 16:30:02;;;;;;;2.60;1.10;;;15.30;99.90;;;;;;4922443;29;20499;-73
2022/02/18 16:32:29;;;;;;;2.13;2.03;;;15.30;99.90;;;;;;4921089;29;20477;-70
2022/02/18 16:34:57;;;;;;;2.70;0.90;;;15.20;99.90;;;;;;4921217;29;20462;-71
2022/02/18 16:37:24;;;;;;;3.80;1.43;;;15.30;99.90;;;;;;4920302;29;20862;-66
2022/02/18 16:39:52;;;;;;;1.67;1.50;;;15.30;99.90;;;;;;4920186;29;20570;-66
2022/02/18 16:42:20;;;;;;;2.93;1.00;;;15.30;99.90;;;;;;4920506;29;20483;-66
2022/02/18 16:44:47;;;;;;;1.07;0.93;;;15.30;99.90;;;;;;4920562;29;20525;-67
2022/02/18 16:47:15;;;;;;;1.00;1.00;;;15.20;99.90;;;;;;4921229;29;20457;-68
2022/02/18 16:49:41;;;;;;;2.70;1.10;;;15.20;99.90;;;;;;4928958;29;20485;-69
2022/02/18 16:52:08;;;;;;;1.33;1.10;;;15.00;99.90;;;;;;4920437;29;20859;-68
2022/02/18 16:54:36;;;;;;;0.90;0.90;;;15.10;99.90;;;;;;4920246;29;20464;-68
2022/02/18 16:57:03;;;;;;;1.67;1.57;;;15.10;99.90;;;;;;4920140;29;20493;-67
2022/02/18 16:59:33;;;;;;;2.20;1.47;;;15.10;99.90;;;;;;4920386;29;20453;-65
2022/02/18 17:02:00;;;;;;;0.90;0.90;;;15.00;99.90;;;;;;4920253;29;20493;-66
2022/02/18 17:04:27;;;;;;;1.77;1.10;;;15.10;99.90;;;;;;4919840;29;20457;-66
2022/02/18 17:06:54;;;;;;;1.10;1.00;;;15.00;99.90;;;;;;4920114;29;20819;-66
2022/02/18 17:09:21;;;;;;;1.00;1.00;;;15.10;99.90;;;;;;4920221;29;20453;-66
2022/02/18 17:11:48;;;;;;;0.70;0.70;;;15.10;99.90;;;;;;4920110;29;20497;-66
2022/02/18 17:14:14;;;;;;;1.10;1.00;;;15.10;99.90;;;;;;4920246;29;20460;-65
2022/02/18 17:16:42;;;;;;;1.10;1.00;;;15.00;99.90;;;;;;4920218;29;20462;-66
2022/02/18 17:19:09;;;;;;;1.30;1.10;;;15.10;99.90;;;;;;4919730;29;20809;-67
2022/02/18 17:21:36;;;;;;;0.80;0.80;;;15.10;99.90;;;;;;4919216;29;20481;-66
2022/02/18 17:24:03;;;;;;;0.80;0.73;;;15.10;99.90;;;;;;4919621;29;20505;-66
2022/02/18 17:26:30;;;;;;;1.20;1.10;;;15.20;99.90;;;;;;4919815;29;20639;-66
2022/02/18 17:28:56;;;;;;;1.03;1.03;;;15.10;99.90;;;;;;4919687;29;20457;-66
2022/02/18 17:31:24;;;;;;;0.80;0.80;;;15.00;99.90;;;;;;4919286;29;20489;-66
2022/02/18 17:33:53;;;;;;;5.03;0.80;;;15.00;99.90;;;;;;4919342;29;20462;-68
2022/02/18 17:36:21;;;;;;;1.70;1.03;;;15.10;99.90;;;;;;4919329;29;20466;-66
2022/02/18 17:38:48;;;;;;;1.23;0.80;;;15.10;99.90;;;;;;4920015;29;20457;-67
2022/02/18 17:41:15;;;;;;;1.97;0.90;;;15.10;99.90;;;;;;4919615;29;20481;-67
2022/02/18 17:43:43;;;;;;;0.73;0.70;;;15.10;99.90;;;;;;4919878;29;20468;-64
2022/02/18 17:46:11;;;;;;;0.67;0.67;;;15.10;99.90;;;;;;4919257;29;20529;-67
2022/02/18 17:48:38;;;;;;;1.10;0.80;;;15.10;99.90;;;;;;4919309;29;20465;-66
2022/02/18 17:51:07;;;;;;;1.57;0.90;;;15.00;99.90;;;;;;4919426;29;20485;-66
2022/02/18 17:53:34;;;;;;;1.30;0.60;;;15.10;99.90;;;;;;4918968;29;20465;-66
2022/02/18 17:56:01;;;;;;;1.93;1.67;;;15.10;99.90;;;;;;4919123;29;20945;-66
2022/02/18 17:58:28;;;;;;;1.23;1.10;;;15.10;99.90;;;;;;4919060;29;20446;-66
2022/02/18 18:00:57;;;;;;;2.00;0.70;;;15.00;99.90;;;;;;4918732;29;20921;-66